sensor_id;sensor_type;location;lat;lon;timestamp;temperature;humidity
14182;DHT22;7171;50.936;6.764;2024-01-15T00:00:08;2.30;99.90
14182;DHT22;7171;50.936;6.764;2024-01-15T00:07:31;2.40;99.90
14182;DHT22;7171;50.936;6.764;2024-01-15T00:09:58;2.40;99.90
14182;DHT22;7171;50.936;6.764;2024-01-15T00:12:24;2.40;99.90
14182;DHT22;7171;50.936;6.764;2024-01-15T00:14:51;2.40;99.90
14182;DHT22;7171;50.936;6.764;2024-01-15T00:17:18;2.40;99.90
14182;DHT22;7171;50.936;6.764;2024-01-15T00:19:46;2.40;99.90
14182;DHT22;7171;50.936;6.764;2024-01-15T00:22:13;2.40;99.90
14182;DHT22;7171;50.936;6.764;2024-01-15T00:24:39;2.40;99.90
14182;DHT22;7171;50.936;6.764;2024-01-15T00:27:06;2.30;99.90
14182;DHT22;7171;50.936;6.764;2024-01-15T00:29:33;2.30;99.90
14182;DHT22;7171;50.936;6.764;2024-01-15T00:32:00;2.40;99.90
14182;DHT22;7171;50.936;6.764;2024-01-15T00:34:26;2.30;99.90
14182;DHT22;7171;50.936;6.764;2024-01-15T00:36:54;2.30;99.90
14182;DHT22;7171;50.936;6.764;2024-01-15T00:39:21;2.30;99.90
14182;DHT22;7171;50.936;6.764;2024-01-15T00:41:48;2.20;99.90
14182;DHT22;7171;50.936;6.764;2024-01-15T00:44:14;2.30;99.90
14182;DHT22;7171;50.936;6.764;2024-01-15T00:46:43;2.20;99.90
14182;DHT22;7171;50.936;6.764;2024-01-15T00:49:11;2.30;99.90
14182;DHT22;7171;50.936;6.764;2024-01-15T00:51:38;2.20;99.90
14182;DHT22;7171;50.936;6.764;2024-01-15T00:54:06;2.20;99.90
14182;DHT22;7171;50.936;6.764;2024-01-15T00:56:33;2.20;99.90
14182;DHT22;7171;50.936;6.764;2024-01-15T00:59:00;2.20;99.90
14182;DHT22;7171;50.936;6.764;2024-01-15T01:01:27;2.20;99.90
14182;DHT22;7171;50.936;6.764;2024-01-15T01:03:54;2.20;99.90
14182;DHT22;7171;50.936;6.764;2024-01-15T01:06:21;2.20;99.90
14182;DHT22;7171;50.936;6.764;2024-01-15T01:08:47;2.20;99.90
14182;DHT22;7171;50.936;6.764;2024-01-15T01:11:16;2.20;99.90
14182;DHT22;7171;50.936;6.764;2024-01-15T01:13:43;2.20;99.90
14182;DHT22;7171;50.936;6.764;2024-01-15T01:16:09;2.20;99.90
14182;DHT22;7171;50.936;6.764;2024-01-15T01:18:36;2.20;99.90
14182;DHT22;7171;50.936;6.764;2024-01-15T01:21:03;2.20;99.90
14182;DHT22;7171;50.936;6.764;2024-01-15T01:23:30;2.20;99.90
14182;DHT22;7171;50.936;6.764;2024-01-15T01:25:56;2.20;99.90
14182;DHT22;7171;50.936;6.764;2024-01-15T01:28:24;2.20;99.90
14182;DHT22;7171;50.936;6.764;2024-01-15T01:30:51;2.20;99.90
14182;DHT22;7171;50.936;6.764;2024-01-15T01:33:18;2.30;99.90
14182;DHT22;7171;50.936;6.764;2024-01-15T01:35:44;2.20;99.90
14182;DHT22;7171;50.936;6.764;2024-01-15T01:38:12;2.20;99.90
14182;DHT22;7171;50.936;6.764;2024-01-15T01:40:39;2.20;99.90
14182;DHT22;7171;50.936;6.764;2024-01-15T01:43:05;2.20;99.90
14182;DHT22;7171;50.936;6.764;2024-01-15T01:45:33;2.20;99.90
14182;DHT22;7171;50.936;6.764;2024-01-15T01:48:00;2.20;99.90
14182;DHT22;7171;50.936;6.764;2024-01-15T01:50:28;2.20;99.90
14182;DHT22;7171;50.936;6.764;2024-01-15T01:52:55;2.20;99.90
14182;DHT22;7171;50.936;6.764;2024-01-15T01:55:25;2.20;99.90
14182;DHT22;7171;50.936;6.764;2024-01-15T01:57:52;2.30;99.90
14182;DHT22;7171;50.936;6.764;2024-01-15T02:00:20;2.30;99.90
14182;DHT22;7171;50.936;6.764;2024-01-15T02:02:48;2.20;99.90
14182;DHT22;7171;50.936;6.764;2024-01-15T02:05:18;2.30;99.90
14182;DHT22;7171;50.936;6.764;2024-01-15T02:07:45;2.20;99.90
14182;DHT22;7171;50.936;6.764;2024-01-15T02:10:13;2.20;99.90
14182;DHT22;7171;50.936;6.764;2024-01-15T02:12:40;2.20;99.90
14182;DHT22;7171;50.936;6.764;2024-01-15T02:15:07;2.20;99.90
14182;DHT22;7171;50.936;6.764;2024-01-15T02:17:35;2.20;99.90
14182;DHT22;7171;50.936;6.764;2024-01-15T02:20:03;2.20;99.90
14182;DHT22;7171;50.936;6.764;2024-01-15T02:22:31;2.30;99.90
14182;DHT22;7171;50.936;6.764;2024-01-15T02:24:59;2.20;99.90
14182;DHT22;7171;50.936;6.764;2024-01-15T02:27:25;2.30;99.90
14182;DHT22;7171;50.936;6.764;2024-01-15T02:29:52;2.30;99.90
14182;DHT22;7171;50.936;6.764;2024-01-15T02:32:19;2.30;99.90
14182;DHT22;7171;50.936;6.764;2024-01-15T02:34:45;2.30;99.90
14182;DHT22;7171;50.936;6.764;2024-01-15T02:37:12;2.30;99.90
14182;DHT22;7171;50.936;6.764;2024-01-15T02:39:39;2.30;99.90
14182;DHT22;7171;50.936;6.764;2024-01-15T02:42:07;2.30;99.90
14182;DHT22;7171;50.936;6.764;2024-01-15T02:44:34;2.30;99.90
14182;DHT22;7171;50.936;6.764;2024-01-15T02:47:00;2.40;99.90
14182;DHT22;7171;50.936;6.764;2024-01-15T02:49:27;2.30;99.90
14182;DHT22;7171;50.936;6.764;2024-01-15T02:51:54;2.40;99.90
14182;DHT22;7171;50.936;6.764;2024-01-15T02:54:20;2.30;99.90
14182;DHT22;7171;50.936;6.764;2024-01-15T02:56:47;2.30;99.90
14182;DHT22;7171;50.936;6.764;2024-01-15T02:59:15;2.30;99.90
14182;DHT22;7171;50.936;6.764;2024-01-15T03:01:42;2.30;99.90
14182;DHT22;7171;50.936;6.764;2024-01-15T03:04:08;2.30;99.90
14182;DHT22;7171;50.936;6.764;2024-01-15T03:06:35;2.30;99.90
14182;DHT22;7171;50.936;6.764;2024-01-15T03:09:02;2.30;99.90
14182;DHT22;7171;50.936;6.764;2024-01-15T03:11:29;2.30;99.90
14182;DHT22;7171;50.936;6.764;2024-01-15T03:13:56;2.30;99.90
14182;DHT22;7171;50.936;6.764;2024-01-15T03:16:24;2.30;99.90
14182;DHT22;7171;50.936;6.764;2024-01-15T03:18:50;2.40;99.90
14182;DHT22;7171;50.936;6.764;2024-01-15T03:21:17;2.30;99.90
14182;DHT22;7171;50.936;6.764;2024-01-15T03:23:44;2.30;99.90
14182;DHT22;7171;50.936;6.764;2024-01-15T03:26:10;2.30;99.90
14182;DHT22;7171;50.936;6.764;2024-01-15T03:28:37;2.30;99.90
14182;DHT22;7171;50.936;6.764;2024-01-15T03:31:04;2.30;99.90
14182;DHT22;7171;50.936;6.764;2024-01-15T03:33:32;2.30;99.90
14182;DHT22;7171;50.936;6.764;2024-01-15T03:35:59;2.40;99.90
14182;DHT22;7171;50.936;6.764;2024-01-15T03:38:28;2.30;99.90
14182;DHT22;7171;50.936;6.764;2024-01-15T03:40:54;2.40;99.90
14182;DHT22;7171;50.936;6.764;2024-01-15T03:43:21;2.40;99.90
14182;DHT22;7171;50.936;6.764;2024-01-15T03:45:48;2.20;99.90
14182;DHT22;7171;50.936;6.764;2024-01-15T03:48:14;2.40;99.90
14182;DHT22;7171;50.936;6.764;2024-01-15T03:50:42;2.00;99.90
14182;DHT22;7171;50.936;6.764;2024-01-15T03:53:09;2.30;99.90
14182;DHT22;7171;50.936;6.764;2024-01-15T03:55:36;2.40;99.90
14182;DHT22;7171;50.936;6.764;2024-01-15T03:58:03;2.40;99.90
14182;DHT22;7171;50.936;6.764;2024-01-15T04:00:30;2.40;99.90
14182;DHT22;7171;50.936;6.764;2024-01-15T04:02:56;2.40;99.90
14182;DHT22;7171;50.936;6.764;2024-01-15T04:05:23;2.40;99.90
14182;DHT22;7171;50.936;6.764;2024-01-15T04:07:51;2.50;99.90
14182;DHT22;7171;50.936;6.764;2024-01-15T04:10:18;2.50;99.90
14182;DHT22;7171;50.936;6.764;2024-01-15T04:12:44;2.50;99.90
14182;DHT22;7171;50.936;6.764;2024-01-15T04:15:12;2.50;99.90
14182;DHT22;7171;50.936;6.764;2024-01-15T04:17:38;2.50;99.90
14182;DHT22;7171;50.936;6.764;2024-01-15T04:20:06;2.50;99.90
14182;DHT22;7171;50.936;6.764;2024-01-15T04:22:33;2.50;99.90
14182;DHT22;7171;50.936;6.764;2024-01-15T04:25:01;2.60;99.90
14182;DHT22;7171;50.936;6.764;2024-01-15T04:27:28;2.50;99.90
14182;DHT22;7171;50.936;6.764;2024-01-15T04:29:55;3.00;99.90
14182;DHT22;7171;50.936;6.764;2024-01-15T04:32:22;2.90;99.90
14182;DHT22;7171;50.936;6.764;2024-01-15T04:34:48;2.50;99.90
14182;DHT22;7171;50.936;6.764;2024-01-15T04:37:15;2.60;99.90
14182;DHT22;7171;50.936;6.764;2024-01-15T04:39:42;2.60;99.90
14182;DHT22;7171;50.936;6.764;2024-01-15T04:42:10;2.50;99.90
14182;DHT22;7171;50.936;6.764;2024-01-15T04:44:36;2.50;99.90
14182;DHT22;7171;50.936;6.764;2024-01-15T04:47:03;2.50;99.90
14182;DHT22;7171;50.936;6.764;2024-01-15T04:49:30;2.80;99.90
14182;DHT22;7171;50.936;6.764;2024-01-15T04:51:57;2.50;99.90
14182;DHT22;7171;50.936;6.764;2024-01-15T04:54:24;2.60;99.90
14182;DHT22;7171;50.936;6.764;2024-01-15T04:56:50;2.50;99.90
14182;DHT22;7171;50.936;6.764;2024-01-15T04:59:18;2.60;99.90
14182;DHT22;7171;50.936;6.764;2024-01-15T05:01:45;2.60;99.90
14182;DHT22;7171;50.936;6.764;2024-01-15T05:04:12;2.60;99.90
14182;DHT22;7171;50.936;6.764;2024-01-15T05:06:38;2.60;99.90
14182;DHT22;7171;50.936;6.764;2024-01-15T05:09:05;2.60;99.90
14182;DHT22;7171;50.936;6.764;2024-01-15T05:11:32;2.80;99.90
14182;DHT22;7171;50.936;6.764;2024-01-15T05:16:27;2.60;99.90
14182;DHT22;7171;50.936;6.764;2024-01-15T05:21:21;2.70;99.90
14182;DHT22;7171;50.936;6.764;2024-01-15T05:23:48;2.60;99.90
14182;DHT22;7171;50.936;6.764;2024-01-15T05:26:15;2.50;99.90
14182;DHT22;7171;50.936;6.764;2024-01-15T05:28:41;2.60;99.90
14182;DHT22;7171;50.936;6.764;2024-01-15T05:31:08;2.10;99.90
14182;DHT22;7171;50.936;6.764;2024-01-15T05:33:37;2.50;99.90
14182;DHT22;7171;50.936;6.764;2024-01-15T05:36:05;2.80;99.90
14182;DHT22;7171;50.936;6.764;2024-01-15T05:38:31;2.80;99.90
14182;DHT22;7171;50.936;6.764;2024-01-15T05:40:58;2.80;99.90
14182;DHT22;7171;50.936;6.764;2024-01-15T05:50:49;2.00;99.90
14182;DHT22;7171;50.936;6.764;2024-01-15T06:00:40;2.80;99.90
14182;DHT22;7171;50.936;6.764;2024-01-15T06:03:06;2.10;99.90
14182;DHT22;7171;50.936;6.764;2024-01-15T06:05:33;2.90;99.90
14182;DHT22;7171;50.936;6.764;2024-01-15T06:08:01;3.10;99.90
14182;DHT22;7171;50.936;6.764;2024-01-15T06:10:28;2.90;99.90
14182;DHT22;7171;50.936;6.764;2024-01-15T06:12:54;3.40;99.90
14182;DHT22;7171;50.936;6.764;2024-01-15T06:15:21;2.70;99.90
14182;DHT22;7171;50.936;6.764;2024-01-15T06:17:48;2.80;99.90
14182;DHT22;7171;50.936;6.764;2024-01-15T06:20:15;2.80;99.90
14182;DHT22;7171;50.936;6.764;2024-01-15T06:22:41;2.70;99.90
14182;DHT22;7171;50.936;6.764;2024-01-15T06:25:09;2.70;99.90
14182;DHT22;7171;50.936;6.764;2024-01-15T06:27:36;2.70;99.90
14182;DHT22;7171;50.936;6.764;2024-01-15T06:30:04;2.70;99.90
14182;DHT22;7171;50.936;6.764;2024-01-15T06:32:31;2.80;99.90
14182;DHT22;7171;50.936;6.764;2024-01-15T06:37:25;2.70;99.90
14182;DHT22;7171;50.936;6.764;2024-01-15T06:39:52;2.90;99.90
14182;DHT22;7171;50.936;6.764;2024-01-15T06:42:20;2.70;99.90
14182;DHT22;7171;50.936;6.764;2024-01-15T06:44:47;2.60;99.90
14182;DHT22;7171;50.936;6.764;2024-01-15T06:47:14;2.60;99.90
14182;DHT22;7171;50.936;6.764;2024-01-15T06:49:42;2.60;99.90
14182;DHT22;7171;50.936;6.764;2024-01-15T06:52:09;2.70;99.90
14182;DHT22;7171;50.936;6.764;2024-01-15T06:54:37;2.60;99.90
14182;DHT22;7171;50.936;6.764;2024-01-15T06:57:03;2.60;99.90
14182;DHT22;7171;50.936;6.764;2024-01-15T07:02:01;2.90;99.90
14182;DHT22;7171;50.936;6.764;2024-01-15T07:04:28;2.70;99.90
14182;DHT22;7171;50.936;6.764;2024-01-15T07:06:55;2.70;99.90
14182;DHT22;7171;50.936;6.764;2024-01-15T07:09:21;2.70;99.90
14182;DHT22;7171;50.936;6.764;2024-01-15T07:11:48;2.60;99.90
14182;DHT22;7171;50.936;6.764;2024-01-15T07:14:15;2.70;99.90
14182;DHT22;7171;50.936;6.764;2024-01-15T07:16:43;2.70;99.90
14182;DHT22;7171;50.936;6.764;2024-01-15T07:19:10;2.70;99.90
14182;DHT22;7171;50.936;6.764;2024-01-15T07:21:36;2.70;99.90
14182;DHT22;7171;50.936;6.764;2024-01-15T07:24:05;2.70;99.90
14182;DHT22;7171;50.936;6.764;2024-01-15T07:26:32;2.70;99.90
14182;DHT22;7171;50.936;6.764;2024-01-15T07:28:58;2.70;99.90
14182;DHT22;7171;50.936;6.764;2024-01-15T07:31:25;2.70;99.90
14182;DHT22;7171;50.936;6.764;2024-01-15T07:33:53;2.70;99.90
14182;DHT22;7171;50.936;6.764;2024-01-15T07:36:20;2.70;99.90
14182;DHT22;7171;50.936;6.764;2024-01-15T07:38:46;2.70;99.90
14182;DHT22;7171;50.936;6.764;2024-01-15T07:41:13;2.70;99.90
14182;DHT22;7171;50.936;6.764;2024-01-15T07:43:40;2.70;99.90
14182;DHT22;7171;50.936;6.764;2024-01-15T07:46:06;2.70;99.90
14182;DHT22;7171;50.936;6.764;2024-01-15T07:48:33;2.80;99.90
14182;DHT22;7171;50.936;6.764;2024-01-15T07:51:01;2.70;99.90
14182;DHT22;7171;50.936;6.764;2024-01-15T07:53:29;2.80;99.90
14182;DHT22;7171;50.936;6.764;2024-01-15T07:55:56;2.80;99.90
14182;DHT22;7171;50.936;6.764;2024-01-15T07:58:23;2.80;99.90
14182;DHT22;7171;50.936;6.764;2024-01-15T08:00:49;2.90;99.90
14182;DHT22;7171;50.936;6.764;2024-01-15T08:03:17;2.90;99.90
14182;DHT22;7171;50.936;6.764;2024-01-15T08:05:44;2.90;99.90
14182;DHT22;7171;50.936;6.764;2024-01-15T08:08:12;2.90;99.90
14182;DHT22;7171;50.936;6.764;2024-01-15T08:10:38;2.90;99.90
14182;DHT22;7171;50.936;6.764;2024-01-15T08:13:05;2.90;99.90
14182;DHT22;7171;50.936;6.764;2024-01-15T08:15:33;2.90;99.90
14182;DHT22;7171;50.936;6.764;2024-01-15T08:18:00;2.90;99.90
14182;DHT22;7171;50.936;6.764;2024-01-15T08:20:26;2.90;99.90
14182;DHT22;7171;50.936;6.764;2024-01-15T08:22:53;2.90;99.90
14182;DHT22;7171;50.936;6.764;2024-01-15T08:25:21;2.90;99.90
14182;DHT22;7171;50.936;6.764;2024-01-15T08:27:48;3.00;99.90
14182;DHT22;7171;50.936;6.764;2024-01-15T08:30:15;3.00;99.90
14182;DHT22;7171;50.936;6.764;2024-01-15T08:32:42;3.00;99.90
14182;DHT22;7171;50.936;6.764;2024-01-15T08:35:08;3.00;99.90
14182;DHT22;7171;50.936;6.764;2024-01-15T08:37:35;3.00;99.90
14182;DHT22;7171;50.936;6.764;2024-01-15T08:40:02;3.00;99.90
14182;DHT22;7171;50.936;6.764;2024-01-15T08:42:31;3.00;99.90
14182;DHT22;7171;50.936;6.764;2024-01-15T08:44:58;3.00;99.90
14182;DHT22;7171;50.936;6.764;2024-01-15T08:47:25;2.90;99.90
14182;DHT22;7171;50.936;6.764;2024-01-15T08:49:51;3.00;99.90
14182;DHT22;7171;50.936;6.764;2024-01-15T08:52:18;2.90;99.90
14182;DHT22;7171;50.936;6.764;2024-01-15T08:54:45;2.90;99.90
14182;DHT22;7171;50.936;6.764;2024-01-15T08:57:12;2.90;99.90
14182;DHT22;7171;50.936;6.764;2024-01-15T08:59:40;2.90;99.90
14182;DHT22;7171;50.936;6.764;2024-01-15T09:02:07;2.90;99.90
14182;DHT22;7171;50.936;6.764;2024-01-15T09:04:34;2.90;99.90
14182;DHT22;7171;50.936;6.764;2024-01-15T09:07:01;2.90;99.90
14182;DHT22;7171;50.936;6.764;2024-01-15T09:09:27;2.90;99.90
14182;DHT22;7171;50.936;6.764;2024-01-15T09:11:54;2.90;99.90
14182;DHT22;7171;50.936;6.764;2024-01-15T09:14:21;2.90;99.90
14182;DHT22;7171;50.936;6.764;2024-01-15T09:16:49;2.80;99.90
14182;DHT22;7171;50.936;6.764;2024-01-15T09:19:16;2.80;99.90
14182;DHT22;7171;50.936;6.764;2024-01-15T09:21:43;2.80;99.90
14182;DHT22;7171;50.936;6.764;2024-01-15T09:24:09;2.70;99.90
14182;DHT22;7171;50.936;6.764;2024-01-15T09:26:36;2.70;99.90
14182;DHT22;7171;50.936;6.764;2024-01-15T09:29:03;2.70;99.90
14182;DHT22;7171;50.936;6.764;2024-01-15T09:31:29;2.70;99.90
14182;DHT22;7171;50.936;6.764;2024-01-15T09:33:58;2.70;99.90
14182;DHT22;7171;50.936;6.764;2024-01-15T09:36:25;2.70;99.90
14182;DHT22;7171;50.936;6.764;2024-01-15T09:38:52;2.70;99.90
14182;DHT22;7171;50.936;6.764;2024-01-15T09:41:19;2.60;99.90
14182;DHT22;7171;50.936;6.764;2024-01-15T09:43:46;2.60;99.90
14182;DHT22;7171;50.936;6.764;2024-01-15T09:46:14;2.60;99.90
14182;DHT22;7171;50.936;6.764;2024-01-15T09:48:41;2.50;99.90
14182;DHT22;7171;50.936;6.764;2024-01-15T09:51:09;2.50;99.90
14182;DHT22;7171;50.936;6.764;2024-01-15T09:53:36;2.50;99.90
14182;DHT22;7171;50.936;6.764;2024-01-15T09:56:04;2.40;99.90
14182;DHT22;7171;50.936;6.764;2024-01-15T09:58:31;2.40;99.90
14182;DHT22;7171;50.936;6.764;2024-01-15T10:00:59;2.40;99.90
14182;DHT22;7171;50.936;6.764;2024-01-15T10:03:26;2.40;99.90
14182;DHT22;7171;50.936;6.764;2024-01-15T10:05:53;2.40;99.90
14182;DHT22;7171;50.936;6.764;2024-01-15T10:08:22;2.40;99.90
14182;DHT22;7171;50.936;6.764;2024-01-15T10:10:50;2.40;99.90
14182;DHT22;7171;50.936;6.764;2024-01-15T10:13:17;2.40;99.90
14182;DHT22;7171;50.936;6.764;2024-01-15T10:15:45;2.40;99.90
14182;DHT22;7171;50.936;6.764;2024-01-15T10:18:12;2.40;99.90
14182;DHT22;7171;50.936;6.764;2024-01-15T10:20:39;2.40;99.90
14182;DHT22;7171;50.936;6.764;2024-01-15T10:23:06;2.40;99.90
14182;DHT22;7171;50.936;6.764;2024-01-15T10:25:35;2.40;99.90
14182;DHT22;7171;50.936;6.764;2024-01-15T10:28:03;2.40;99.90
14182;DHT22;7171;50.936;6.764;2024-01-15T10:30:31;2.40;99.90
14182;DHT22;7171;50.936;6.764;2024-01-15T10:32:59;2.40;99.90
14182;DHT22;7171;50.936;6.764;2024-01-15T10:35:27;2.50;99.90
14182;DHT22;7171;50.936;6.764;2024-01-15T10:37:54;2.50;99.90
14182;DHT22;7171;50.936;6.764;2024-01-15T10:40:21;2.50;99.90
14182;DHT22;7171;50.936;6.764;2024-01-15T10:42:49;2.50;99.90
14182;DHT22;7171;50.936;6.764;2024-01-15T10:45:16;2.50;99.90
14182;DHT22;7171;50.936;6.764;2024-01-15T10:47:43;2.50;99.90
14182;DHT22;7171;50.936;6.764;2024-01-15T10:50:10;2.40;99.90
14182;DHT22;7171;50.936;6.764;2024-01-15T10:52:38;2.40;99.90
14182;DHT22;7171;50.936;6.764;2024-01-15T10:55:07;2.40;99.90
14182;DHT22;7171;50.936;6.764;2024-01-15T10:57:34;2.40;99.90
14182;DHT22;7171;50.936;6.764;2024-01-15T11:00:03;2.40;99.90
14182;DHT22;7171;50.936;6.764;2024-01-15T11:02:31;2.40;99.90
14182;DHT22;7171;50.936;6.764;2024-01-15T11:04:59;2.40;99.90
14182;DHT22;7171;50.936;6.764;2024-01-15T11:07:26;2.40;99.90
14182;DHT22;7171;50.936;6.764;2024-01-15T11:09:53;2.40;99.90
14182;DHT22;7171;50.936;6.764;2024-01-15T11:12:20;2.40;99.90
14182;DHT22;7171;50.936;6.764;2024-01-15T11:14:47;2.40;99.90
14182;DHT22;7171;50.936;6.764;2024-01-15T11:17:16;2.40;99.90
14182;DHT22;7171;50.936;6.764;2024-01-15T11:19:45;2.40;99.90
14182;DHT22;7171;50.936;6.764;2024-01-15T11:25:13;2.40;99.90
14182;DHT22;7171;50.936;6.764;2024-01-15T11:27:41;2.40;99.90
14182;DHT22;7171;50.936;6.764;2024-01-15T11:30:09;2.40;99.90
14182;DHT22;7171;50.936;6.764;2024-01-15T11:32:38;2.40;99.90
14182;DHT22;7171;50.936;6.764;2024-01-15T11:35:07;2.40;99.90
14182;DHT22;7171;50.936;6.764;2024-01-15T11:37:58;2.40;99.90
14182;DHT22;7171;50.936;6.764;2024-01-15T11:40:38;2.40;99.90
14182;DHT22;7171;50.936;6.764;2024-01-15T11:43:05;2.40;99.90
14182;DHT22;7171;50.936;6.764;2024-01-15T11:45:35;2.40;99.90
14182;DHT22;7171;50.936;6.764;2024-01-15T11:48:13;2.40;99.90
14182;DHT22;7171;50.936;6.764;2024-01-15T11:50:41;2.40;99.90
14182;DHT22;7171;50.936;6.764;2024-01-15T11:53:16;2.40;99.90
14182;DHT22;7171;50.936;6.764;2024-01-15T11:55:44;2.40;99.90
14182;DHT22;7171;50.936;6.764;2024-01-15T11:58:12;2.40;99.90
14182;DHT22;7171;50.936;6.764;2024-01-15T12:00:40;2.40;99.90
14182;DHT22;7171;50.936;6.764;2024-01-15T12:03:08;2.40;99.90
14182;DHT22;7171;50.936;6.764;2024-01-15T12:05:38;2.40;99.90
14182;DHT22;7171;50.936;6.764;2024-01-15T12:08:05;2.40;99.90
14182;DHT22;7171;50.936;6.764;2024-01-15T12:10:36;2.40;99.90
14182;DHT22;7171;50.936;6.764;2024-01-15T12:13:05;2.50;99.90
14182;DHT22;7171;50.936;6.764;2024-01-15T12:15:33;2.50;99.90
14182;DHT22;7171;50.936;6.764;2024-01-15T12:18:01;2.50;99.90
14182;DHT22;7171;50.936;6.764;2024-01-15T12:20:29;2.50;99.90
14182;DHT22;7171;50.936;6.764;2024-01-15T12:22:58;2.50;99.90
14182;DHT22;7171;50.936;6.764;2024-01-15T12:25:25;2.50;99.90
14182;DHT22;7171;50.936;6.764;2024-01-15T12:27:53;2.60;99.90
14182;DHT22;7171;50.936;6.764;2024-01-15T12:30:20;2.60;99.90
14182;DHT22;7171;50.936;6.764;2024-01-15T12:32:46;2.60;99.90
14182;DHT22;7171;50.936;6.764;2024-01-15T12:35:14;2.60;99.90
14182;DHT22;7171;50.936;6.764;2024-01-15T12:37:41;2.70;99.90
14182;DHT22;7171;50.936;6.764;2024-01-15T12:40:10;2.70;99.90
14182;DHT22;7171;50.936;6.764;2024-01-15T12:42:37;2.70;99.90
14182;DHT22;7171;50.936;6.764;2024-01-15T12:45:06;2.70;99.90
14182;DHT22;7171;50.936;6.764;2024-01-15T12:47:33;2.70;99.90
14182;DHT22;7171;50.936;6.764;2024-01-15T12:50:00;2.70;99.90
14182;DHT22;7171;50.936;6.764;2024-01-15T12:52:27;2.70;99.90
14182;DHT22;7171;50.936;6.764;2024-01-15T12:54:54;2.70;99.90
14182;DHT22;7171;50.936;6.764;2024-01-15T12:57:22;2.80;99.90
14182;DHT22;7171;50.936;6.764;2024-01-15T12:59:49;2.80;99.90
14182;DHT22;7171;50.936;6.764;2024-01-15T13:02:16;2.80;99.90
14182;DHT22;7171;50.936;6.764;2024-01-15T13:04:43;2.80;99.90
14182;DHT22;7171;50.936;6.764;2024-01-15T13:07:10;2.80;99.90
14182;DHT22;7171;50.936;6.764;2024-01-15T13:09:37;2.90;99.90
14182;DHT22;7171;50.936;6.764;2024-01-15T13:12:04;2.90;99.90
14182;DHT22;7171;50.936;6.764;2024-01-15T13:14:32;2.90;99.90
14182;DHT22;7171;50.936;6.764;2024-01-15T13:16:59;2.90;99.90
14182;DHT22;7171;50.936;6.764;2024-01-15T13:19:26;2.90;99.90
14182;DHT22;7171;50.936;6.764;2024-01-15T13:21:53;2.90;99.90
14182;DHT22;7171;50.936;6.764;2024-01-15T13:24:21;2.90;99.90
14182;DHT22;7171;50.936;6.764;2024-01-15T13:26:49;2.90;99.90
14182;DHT22;7171;50.936;6.764;2024-01-15T13:29:15;2.90;99.90
14182;DHT22;7171;50.936;6.764;2024-01-15T13:31:43;2.90;99.90
14182;DHT22;7171;50.936;6.764;2024-01-15T13:34:12;2.90;99.90
14182;DHT22;7171;50.936;6.764;2024-01-15T13:36:39;2.80;99.90
14182;DHT22;7171;50.936;6.764;2024-01-15T13:39:06;2.80;99.90
14182;DHT22;7171;50.936;6.764;2024-01-15T13:41:34;2.80;99.90
14182;DHT22;7171;50.936;6.764;2024-01-15T13:44:01;2.80;99.90
14182;DHT22;7171;50.936;6.764;2024-01-15T13:46:29;2.80;99.90
14182;DHT22;7171;50.936;6.764;2024-01-15T13:48:57;2.80;99.90
14182;DHT22;7171;50.936;6.764;2024-01-15T13:51:24;2.80;99.90
14182;DHT22;7171;50.936;6.764;2024-01-15T13:53:51;2.80;99.90
14182;DHT22;7171;50.936;6.764;2024-01-15T13:56:18;2.80;99.90
14182;DHT22;7171;50.936;6.764;2024-01-15T13:58:45;2.80;99.90
14182;DHT22;7171;50.936;6.764;2024-01-15T14:01:13;2.80;99.90
14182;DHT22;7171;50.936;6.764;2024-01-15T14:03:40;2.80;99.90
14182;DHT22;7171;50.936;6.764;2024-01-15T14:06:08;2.80;99.90
14182;DHT22;7171;50.936;6.764;2024-01-15T14:08:36;2.80;99.90
14182;DHT22;7171;50.936;6.764;2024-01-15T14:11:03;2.80;99.90
14182;DHT22;7171;50.936;6.764;2024-01-15T14:13:31;2.80;99.90
14182;DHT22;7171;50.936;6.764;2024-01-15T14:15:58;2.80;99.90
14182;DHT22;7171;50.936;6.764;2024-01-15T14:18:25;2.80;99.90
14182;DHT22;7171;50.936;6.764;2024-01-15T14:20:52;2.80;99.90
14182;DHT22;7171;50.936;6.764;2024-01-15T14:23:21;2.80;99.90
14182;DHT22;7171;50.936;6.764;2024-01-15T14:25:47;2.80;99.90
14182;DHT22;7171;50.936;6.764;2024-01-15T14:28:14;2.80;99.90
14182;DHT22;7171;50.936;6.764;2024-01-15T14:30:41;2.80;99.90
14182;DHT22;7171;50.936;6.764;2024-01-15T14:33:07;2.80;99.90
14182;DHT22;7171;50.936;6.764;2024-01-15T14:35:35;2.80;99.90
14182;DHT22;7171;50.936;6.764;2024-01-15T14:38:01;2.70;99.90
14182;DHT22;7171;50.936;6.764;2024-01-15T14:40:29;2.70;99.90
14182;DHT22;7171;50.936;6.764;2024-01-15T14:42:56;2.70;99.90
14182;DHT22;7171;50.936;6.764;2024-01-15T14:45:23;2.70;99.90
14182;DHT22;7171;50.936;6.764;2024-01-15T14:47:49;2.70;99.90
14182;DHT22;7171;50.936;6.764;2024-01-15T14:50:16;2.70;99.90
14182;DHT22;7171;50.936;6.764;2024-01-15T14:52:43;2.60;99.90
14182;DHT22;7171;50.936;6.764;2024-01-15T14:55:10;2.70;99.90
14182;DHT22;7171;50.936;6.764;2024-01-15T14:57:38;2.70;99.90
14182;DHT22;7171;50.936;6.764;2024-01-15T15:00:06;2.60;99.90
14182;DHT22;7171;50.936;6.764;2024-01-15T15:02:34;2.60;99.90
14182;DHT22;7171;50.936;6.764;2024-01-15T15:05:01;2.60;99.90
14182;DHT22;7171;50.936;6.764;2024-01-15T15:07:28;2.50;99.90
14182;DHT22;7171;50.936;6.764;2024-01-15T15:09:54;2.60;99.90
14182;DHT22;7171;50.936;6.764;2024-01-15T15:12:21;2.50;99.90
14182;DHT22;7171;50.936;6.764;2024-01-15T15:14:50;2.50;99.90
14182;DHT22;7171;50.936;6.764;2024-01-15T15:17:16;2.50;99.90
14182;DHT22;7171;50.936;6.764;2024-01-15T15:19:43;2.50;99.90
14182;DHT22;7171;50.936;6.764;2024-01-15T15:22:10;2.50;99.90
14182;DHT22;7171;50.936;6.764;2024-01-15T15:24:37;2.50;99.90
14182;DHT22;7171;50.936;6.764;2024-01-15T15:27:04;2.50;99.90
14182;DHT22;7171;50.936;6.764;2024-01-15T15:29:32;2.50;99.90
14182;DHT22;7171;50.936;6.764;2024-01-15T15:32:00;2.50;99.90
14182;DHT22;7171;50.936;6.764;2024-01-15T15:34:27;2.50;99.90
14182;DHT22;7171;50.936;6.764;2024-01-15T15:36:53;2.50;99.90
14182;DHT22;7171;50.936;6.764;2024-01-15T15:39:20;2.50;99.90
14182;DHT22;7171;50.936;6.764;2024-01-15T15:41:47;2.50;99.90
14182;DHT22;7171;50.936;6.764;2024-01-15T15:44:14;2.40;99.90
14182;DHT22;7171;50.936;6.764;2024-01-15T15:46:42;2.40;99.90
14182;DHT22;7171;50.936;6.764;2024-01-15T15:49:10;2.40;99.90
14182;DHT22;7171;50.936;6.764;2024-01-15T15:51:37;2.40;99.90
14182;DHT22;7171;50.936;6.764;2024-01-15T15:54:04;2.40;99.90
14182;DHT22;7171;50.936;6.764;2024-01-15T15:56:31;2.40;99.90
14182;DHT22;7171;50.936;6.764;2024-01-15T15:58:59;2.40;99.90
14182;DHT22;7171;50.936;6.764;2024-01-15T16:01:26;2.40;99.90
14182;DHT22;7171;50.936;6.764;2024-01-15T16:03:53;2.40;99.90
14182;DHT22;7171;50.936;6.764;2024-01-15T16:06:21;2.40;99.90
14182;DHT22;7171;50.936;6.764;2024-01-15T16:08:48;2.50;99.90
14182;DHT22;7171;50.936;6.764;2024-01-15T16:11:14;2.50;99.90
14182;DHT22;7171;50.936;6.764;2024-01-15T16:13:41;2.50;99.90
14182;DHT22;7171;50.936;6.764;2024-01-15T16:16:08;3.20;99.90
14182;DHT22;7171;50.936;6.764;2024-01-15T16:18:34;2.60;99.90
14182;DHT22;7171;50.936;6.764;2024-01-15T16:21:02;2.60;99.90
14182;DHT22;7171;50.936;6.764;2024-01-15T16:23:30;2.70;99.90
14182;DHT22;7171;50.936;6.764;2024-01-15T16:25:57;2.60;99.90
14182;DHT22;7171;50.936;6.764;2024-01-15T16:28:23;2.60;99.90
14182;DHT22;7171;50.936;6.764;2024-01-15T16:30:50;2.60;99.90
14182;DHT22;7171;50.936;6.764;2024-01-15T16:33:17;2.60;99.90